createdAt,value
2018-02-20T00:00:48.433Z,85.61
2018-02-20T00:01:48.421Z,84.66
2018-02-20T00:02:48.413Z,85.70
2018-02-20T00:03:48.388Z,85.80
2018-02-20T00:04:48.383Z,85.13
2018-02-20T00:05:48.359Z,85.32
2018-02-20T00:06:48.352Z,85.70
2018-02-20T00:07:48.331Z,86.74
2018-02-20T00:08:48.323Z,86.18
2018-02-20T00:09:48.302Z,85.94
2018-02-20T00:10:48.293Z,85.80
2018-02-20T00:11:48.277Z,86.93
2018-02-20T00:12:48.257Z,87.50
2018-02-20T00:13:48.244Z,87.21
2018-02-20T00:14:48.235Z,87.21
2018-02-20T00:15:48.213Z,84.66
2018-02-20T00:16:48.206Z,84.56
2018-02-20T00:17:48.186Z,84.28
2018-02-20T00:18:48.173Z,84.47
2018-02-20T00:19:48.155Z,84.09
2018-02-20T00:20:48.146Z,85.51
2018-02-20T00:21:48.126Z,85.66
2018-02-20T00:22:48.117Z,86.41
2018-02-20T00:23:48.098Z,86.22
2018-02-20T00:24:48.087Z,85.57
2018-02-20T00:25:48.068Z,85.57
2018-02-20T00:26:48.055Z,85.94
2018-02-20T00:27:48.040Z,88.02
2018-02-20T00:28:48.030Z,86.70
2018-02-20T00:29:48.013Z,86.41
2018-02-20T00:30:47.995Z,87.08
2018-02-20T00:31:47.982Z,86.70
2018-02-20T00:32:47.966Z,86.32
2018-02-20T00:33:47.952Z,86.79
2018-02-20T00:34:47.939Z,86.60
2018-02-20T00:35:47.928Z,86.70
2018-02-20T00:36:47.908Z,86.41
2018-02-20T00:37:47.894Z,87.08
2018-02-20T00:38:47.883Z,87.55
2018-02-20T00:39:47.870Z,87.36
2018-02-20T00:40:47.852Z,88.02
2018-02-20T00:41:47.836Z,88.02
2018-02-20T00:42:47.827Z,88.68
2018-02-20T00:43:47.806Z,88.21
2018-02-20T00:44:47.792Z,88.21
2018-02-20T00:45:47.779Z,88.12
2018-02-20T00:46:47.768Z,88.40
2018-02-20T00:47:47.748Z,87.74
2018-02-20T00:48:47.740Z,88.02
2018-02-20T00:49:47.717Z,87.55
2018-02-20T00:50:47.712Z,88.21
2018-02-20T00:51:47.689Z,88.12
2018-02-20T00:52:47.681Z,88.78
2018-02-20T00:53:47.661Z,88.49
2018-02-20T00:54:47.648Z,87.46
2018-02-20T00:55:47.631Z,87.21
2018-02-20T00:56:47.618Z,86.79
2018-02-20T00:57:47.606Z,87.17
2018-02-20T00:58:47.590Z,86.98
2018-02-20T00:59:47.580Z,87.08
2018-02-20T01:00:47.561Z,87.17
2018-02-20T01:01:47.545Z,88.02
2018-02-20T01:02:47.535Z,87.27
2018-02-20T01:03:47.516Z,87.17
2018-02-20T01:04:47.500Z,86.98
2018-02-20T01:05:47.487Z,86.60
2018-02-20T01:06:47.479Z,87.08
2018-02-20T01:07:47.457Z,87.08
2018-02-20T01:08:47.448Z,88.02
2018-02-20T01:09:47.427Z,88.21
2018-02-20T01:10:47.415Z,88.31
2018-02-20T01:11:47.398Z,88.02
2018-02-20T01:12:47.392Z,89.06
2018-02-20T01:13:47.374Z,89.73
2018-02-20T01:14:47.363Z,88.59
2018-02-20T01:15:47.348Z,87.65
2018-02-20T01:16:47.331Z,87.93
2018-02-20T01:17:47.317Z,88.02
2018-02-20T01:18:47.303Z,88.97
2018-02-20T01:19:47.282Z,89.06
2018-02-20T01:20:47.267Z,88.68
2018-02-20T01:21:47.252Z,88.49
2018-02-20T01:22:47.249Z,87.46
2018-02-20T01:23:47.222Z,87.17
2018-02-20T01:24:47.208Z,89.73
2018-02-20T01:25:47.198Z,89.06
2018-02-20T01:26:47.182Z,86.98
2018-02-20T01:27:47.164Z,87.17
2018-02-20T01:28:47.150Z,87.17
2018-02-20T01:29:47.135Z,86.98
2018-02-20T01:30:47.120Z,86.89
2018-02-20T01:31:47.104Z,87.46
2018-02-20T01:32:47.091Z,87.17
2018-02-20T01:33:47.077Z,87.17
2018-02-20T01:34:47.061Z,87.65
2018-02-20T01:35:47.046Z,87.55
2018-02-20T01:36:47.033Z,88.02
2018-02-20T01:37:47.022Z,88.21
2018-02-20T01:38:47.005Z,88.40
2018-02-20T01:39:46.989Z,91.81
2018-02-20T01:40:46.977Z,91.05
2018-02-20T01:41:46.959Z,89.44
2018-02-20T01:42:46.947Z,88.02
2018-02-20T01:43:46.930Z,87.65
2018-02-20T01:44:46.915Z,88.02
2018-02-20T01:45:46.900Z,87.27
2018-02-20T01:46:46.887Z,87.93
2018-02-20T01:47:46.876Z,88.49
2018-02-20T01:48:46.858Z,90.20
2018-02-20T01:49:46.840Z,88.68
2018-02-20T01:50:46.827Z,89.35
2018-02-20T01:51:46.813Z,88.21
2018-02-20T01:52:46.797Z,87.55
2018-02-20T01:53:46.782Z,87.93
2018-02-20T01:54:46.768Z,87.27
2018-02-20T01:55:46.757Z,87.17
2018-02-20T01:56:46.744Z,87.55
2018-02-20T01:57:46.728Z,88.21
2018-02-20T01:58:46.726Z,88.49
2018-02-20T01:59:46.696Z,89.06
2018-02-20T02:00:46.689Z,88.87
2018-02-20T02:01:46.670Z,89.16
2018-02-20T02:02:46.652Z,88.68
2018-02-20T02:03:46.635Z,88.59
2018-02-20T02:04:46.620Z,88.49
2018-02-20T02:05:46.605Z,88.59
2018-02-20T02:06:46.598Z,88.97
2018-02-20T02:07:46.578Z,89.63
2018-02-20T02:08:46.563Z,89.82
2018-02-20T02:09:46.555Z,90.20
2018-02-20T02:10:46.541Z,90.39
2018-02-20T02:11:46.517Z,90.58
2018-02-20T02:12:46.539Z,91.15
2018-02-20T02:13:46.494Z,91.24
2018-02-20T02:14:46.472Z,91.53
2018-02-20T02:15:46.463Z,91.34
2018-02-20T02:16:46.444Z,91.81
2018-02-20T02:17:46.431Z,91.72
2018-02-20T02:18:46.419Z,92.29
2018-02-20T02:19:46.397Z,92.38
2018-02-20T02:20:46.384Z,92.00
2018-02-20T02:21:46.368Z,92.10
2018-02-20T02:22:46.355Z,92.47
2018-02-20T02:23:46.340Z,92.19
2018-02-20T02:24:46.326Z,92.10
2018-02-20T02:25:46.309Z,92.66
2018-02-20T02:26:46.297Z,92.38
2018-02-20T02:27:46.281Z,92.66
2018-02-20T02:28:46.266Z,92.85
2018-02-20T02:29:46.252Z,92.76
2018-02-20T02:30:46.237Z,92.47
2018-02-20T02:31:46.228Z,91.91
2018-02-20T02:32:46.208Z,92.85
2018-02-20T02:33:46.193Z,91.81
2018-02-20T02:34:46.178Z,92.66
2018-02-20T02:35:46.162Z,92.47
2018-02-20T02:36:46.153Z,92.85
2018-02-20T02:37:46.134Z,91.91
2018-02-20T02:38:46.120Z,92.10
2018-02-20T02:39:46.107Z,92.85
2018-02-20T02:40:46.090Z,92.10
2018-02-20T02:41:46.075Z,92.47
2018-02-20T02:42:46.067Z,92.85
2018-02-20T02:43:46.044Z,92.66
2018-02-20T02:44:46.034Z,92.85
2018-02-20T02:45:46.019Z,92.85
2018-02-20T02:46:46.002Z,92.57
2018-02-20T02:47:45.987Z,92.94
2018-02-20T02:48:45.972Z,92.94
2018-02-20T02:49:45.957Z,92.85
2018-02-20T02:50:45.943Z,92.66
2018-02-20T02:51:45.931Z,92.85
2018-02-20T02:52:45.911Z,92.76
2018-02-20T02:53:45.896Z,92.47
2018-02-20T02:54:45.884Z,93.42
2018-02-20T02:55:45.867Z,92.66
2018-02-20T02:56:45.857Z,92.10
2018-02-20T02:57:45.842Z,92.66
2018-02-20T02:58:45.823Z,91.91
2018-02-20T02:59:45.815Z,91.91
2018-02-20T03:00:45.796Z,91.81
2018-02-20T03:01:45.785Z,92.00
2018-02-20T03:02:45.770Z,91.53
2018-02-20T03:03:45.754Z,92.00
2018-02-20T03:04:45.741Z,92.10
2018-02-20T03:05:45.721Z,92.10
2018-02-20T03:06:45.705Z,92.19
2018-02-20T03:07:45.697Z,91.91
2018-02-20T03:08:45.684Z,91.34
2018-02-20T03:09:45.667Z,91.81
2018-02-20T03:10:45.652Z,91.34
2018-02-20T03:11:45.632Z,91.24
2018-02-20T03:12:45.617Z,90.11
2018-02-20T03:13:45.603Z,90.01
2018-02-20T03:14:45.591Z,90.11
2018-02-20T03:15:45.577Z,90.86
2018-02-20T03:16:45.558Z,91.24
2018-02-20T03:17:45.547Z,91.24
2018-02-20T03:18:45.535Z,91.05
2018-02-20T03:19:45.520Z,91.53
2018-02-20T03:20:45.501Z,91.43
2018-02-20T03:21:45.486Z,91.34
2018-02-20T03:22:45.470Z,91.24
2018-02-20T03:23:45.456Z,90.96
2018-02-20T03:24:45.442Z,91.24
2018-02-20T03:25:45.429Z,90.86
2018-02-20T03:26:45.419Z,91.15
2018-02-20T03:27:45.404Z,90.96
2018-02-20T03:28:45.383Z,91.53
2018-02-20T03:29:45.369Z,90.67
2018-02-20T03:30:45.354Z,90.58
2018-02-20T03:31:45.343Z,90.67
2018-02-20T03:32:45.324Z,90.96
2018-02-20T03:33:45.310Z,91.05
2018-02-20T03:34:45.302Z,90.96
2018-02-20T03:35:45.285Z,91.05
2018-02-20T03:36:45.267Z,91.24
2018-02-20T03:37:45.253Z,91.05
2018-02-20T03:38:45.241Z,91.24
2018-02-20T03:39:45.220Z,92.47
2018-02-20T03:40:45.206Z,92.19
2018-02-20T03:41:45.192Z,91.72
2018-02-20T03:42:45.233Z,89.54
2018-02-20T03:43:45.164Z,90.01
2018-02-20T03:44:45.147Z,89.54
2018-02-20T03:45:45.134Z,89.25
2018-02-20T03:46:45.125Z,89.54
2018-02-20T03:47:45.103Z,88.97
2018-02-20T03:48:45.095Z,89.25
2018-02-20T03:49:45.080Z,89.54
2018-02-20T03:50:45.062Z,89.82
2018-02-20T03:51:45.045Z,89.82
2018-02-20T03:52:45.031Z,89.16
2018-02-20T03:53:45.020Z,91.53
2018-02-20T03:54:45.001Z,90.58
2018-02-20T03:55:44.994Z,90.20
2018-02-20T03:56:44.974Z,89.54
2018-02-20T03:57:44.959Z,89.06
2018-02-20T03:58:44.942Z,91.38
2018-02-20T03:59:44.934Z,90.06
2018-02-20T04:00:44.913Z,88.64
2018-02-20T04:01:44.907Z,88.40
2018-02-20T04:02:44.885Z,87.93
2018-02-20T04:03:44.869Z,88.59
2018-02-20T04:04:44.855Z,90.25
2018-02-20T04:05:44.842Z,92.05
2018-02-20T04:06:44.832Z,89.11
2018-02-20T04:07:44.812Z,88.64
2018-02-20T04:08:44.802Z,88.07
2018-02-20T04:09:44.784Z,87.98
2018-02-20T04:10:44.769Z,89.49
2018-02-20T04:11:44.754Z,87.98
2018-02-20T04:12:44.741Z,87.65
2018-02-20T04:13:44.726Z,87.08
2018-02-20T04:14:44.711Z,87.65
2018-02-20T04:15:44.696Z,87.84
2018-02-20T04:16:44.683Z,87.93
2018-02-20T04:17:44.740Z,88.49
2018-02-20T04:18:44.651Z,89.16
2018-02-20T04:19:44.636Z,89.06
2018-02-20T04:20:44.633Z,90.58
2018-02-20T04:21:44.615Z,89.06
2018-02-20T04:22:44.613Z,88.49
2018-02-20T04:23:44.579Z,88.87
2018-02-20T04:24:44.580Z,88.45
2018-02-20T04:25:44.551Z,88.12
2018-02-20T04:26:44.552Z,88.97
2018-02-20T04:27:44.527Z,88.68
2018-02-20T04:28:44.509Z,88.02
2018-02-20T04:29:44.506Z,88.40
2018-02-20T04:30:44.490Z,89.06
2018-02-20T04:31:44.491Z,91.62
2018-02-20T04:32:44.463Z,90.11
2018-02-20T04:33:44.433Z,90.63
2018-02-20T04:34:44.556Z,90.06
2018-02-20T04:35:44.404Z,91.29
2018-02-20T04:36:44.426Z,88.54
2018-02-20T04:37:44.382Z,87.69
2018-02-20T04:38:44.390Z,87.78
2018-02-20T04:39:44.345Z,89.87
2018-02-20T04:40:44.402Z,88.26
2018-02-20T04:41:44.315Z,87.31
2018-02-20T04:42:44.321Z,87.69
2018-02-20T04:43:44.300Z,88.26
2018-02-20T04:44:44.276Z,88.64
2018-02-20T04:45:44.259Z,88.35
2018-02-20T04:46:44.301Z,88.17
2018-02-20T04:47:44.236Z,87.98
2018-02-20T04:48:44.219Z,87.65
2018-02-20T04:49:44.217Z,87.88
2018-02-20T04:50:44.188Z,88.82
2018-02-20T04:51:44.177Z,88.31
2018-02-20T04:52:44.157Z,88.97
2018-02-20T04:53:44.151Z,88.40
2018-02-20T04:54:44.132Z,88.49
2018-02-20T04:55:44.177Z,89.06
2018-02-20T04:56:44.113Z,88.12
2018-02-20T04:57:44.107Z,88.78
2018-02-20T04:58:44.088Z,88.97
2018-02-20T04:59:44.053Z,89.06
2018-02-20T05:00:44.039Z,89.35
2018-02-20T05:01:44.068Z,89.54
2018-02-20T05:02:44.028Z,89.73
2018-02-20T05:03:44.002Z,89.92
2018-02-20T05:04:43.987Z,89.82
2018-02-20T05:05:43.986Z,90.30
2018-02-20T05:06:43.968Z,90.30
2018-02-20T05:07:43.936Z,90.39
2018-02-20T05:08:43.928Z,89.63
2018-02-20T05:09:43.921Z,90.96
2018-02-20T05:10:43.896Z,90.48
2018-02-20T05:11:43.878Z,90.96
2018-02-20T05:12:43.917Z,90.30
2018-02-20T05:13:43.851Z,90.48
2018-02-20T05:14:43.950Z,89.73
2018-02-20T05:15:43.835Z,89.73
2018-02-20T05:16:43.839Z,91.15
2018-02-20T05:17:43.841Z,90.30
2018-02-20T05:18:43.779Z,89.92
2018-02-20T05:19:43.815Z,90.01
2018-02-20T05:20:43.795Z,89.54
2018-02-20T05:21:43.800Z,89.92
2018-02-20T05:22:43.864Z,89.16
2018-02-20T05:23:43.770Z,89.82
2018-02-20T05:24:43.701Z,90.11
2018-02-20T05:25:43.734Z,89.54
2018-02-20T05:26:43.662Z,89.73
2018-02-20T05:27:43.650Z,90.30
2018-02-20T05:28:43.631Z,91.91
2018-02-20T05:29:43.628Z,90.77
2018-02-20T05:30:43.610Z,90.81
2018-02-20T05:31:43.611Z,89.58
2018-02-20T05:32:43.615Z,89.68
2018-02-20T05:33:43.560Z,88.02
2018-02-20T05:34:43.545Z,89.25
2018-02-20T05:35:43.535Z,88.49
2018-02-20T05:36:43.516Z,89.68
2018-02-20T05:37:43.504Z,89.77
2018-02-20T05:38:43.485Z,89.63
2018-02-20T05:39:43.469Z,90.15
2018-02-20T05:40:43.457Z,89.54
2018-02-20T05:41:43.443Z,89.20
2018-02-20T05:42:43.426Z,88.07
2018-02-20T05:43:43.413Z,89.92
2018-02-20T05:44:43.397Z,88.78
2018-02-20T05:45:43.383Z,87.55
2018-02-20T05:46:43.371Z,87.27
2018-02-20T05:47:43.352Z,87.59
2018-02-20T05:48:43.339Z,90.06
2018-02-20T05:49:43.324Z,89.44
2018-02-20T05:50:43.318Z,90.15
2018-02-20T05:51:43.293Z,88.92
2018-02-20T05:52:43.278Z,89.68
2018-02-20T05:53:43.264Z,90.44
2018-02-20T05:54:43.257Z,89.58
2018-02-20T05:55:43.235Z,88.82
2018-02-20T05:56:43.223Z,88.82
2018-02-20T05:57:43.206Z,87.88
2018-02-20T05:58:43.191Z,87.27
2018-02-20T05:59:43.176Z,88.64
2018-02-20T06:00:43.162Z,91.29
2018-02-20T06:01:43.148Z,90.06
2018-02-20T06:02:43.134Z,89.11
2018-02-20T06:03:43.120Z,88.73
2018-02-20T06:04:43.104Z,88.45
2018-02-20T06:05:43.092Z,88.17
2018-02-20T06:06:43.081Z,89.11
2018-02-20T06:07:43.066Z,88.17
2018-02-20T06:08:43.042Z,88.59
2018-02-20T06:09:43.079Z,88.45
2018-02-20T06:10:43.014Z,89.58
2018-02-20T06:11:43.003Z,88.73
2018-02-20T06:12:42.993Z,88.07
2018-02-20T06:13:42.984Z,90.15
2018-02-20T06:14:42.956Z,90.91
2018-02-20T06:15:42.944Z,88.54
2018-02-20T06:16:42.925Z,88.45
2018-02-20T06:17:42.917Z,88.73
2018-02-20T06:18:42.899Z,89.44
2018-02-20T06:19:42.885Z,89.82
2018-02-20T06:20:42.869Z,89.39
2018-02-20T06:21:42.860Z,89.58
2018-02-20T06:22:42.839Z,91.72
2018-02-20T06:23:42.823Z,89.92
2018-02-20T06:24:42.816Z,90.01
2018-02-20T06:25:42.796Z,91.72
2018-02-20T06:26:42.779Z,90.01
2018-02-20T06:27:42.766Z,89.54
2018-02-20T06:28:42.752Z,89.63
2018-02-20T06:29:42.736Z,92.10
2018-02-20T06:30:42.720Z,90.96
2018-02-20T06:31:42.711Z,91.15
2018-02-20T06:32:42.689Z,89.25
2018-02-20T06:33:42.674Z,89.35
2018-02-20T06:34:42.664Z,89.54
2018-02-20T06:35:42.644Z,89.82
2018-02-20T06:36:42.636Z,90.01
2018-02-20T06:37:42.613Z,89.44
2018-02-20T06:38:42.599Z,90.58
2018-02-20T06:39:42.585Z,89.73
2018-02-20T06:40:42.569Z,89.54
2018-02-20T06:41:42.561Z,90.58
2018-02-20T06:42:42.544Z,91.72
2018-02-20T06:43:42.521Z,91.91
2018-02-20T06:44:42.515Z,91.91
2018-02-20T06:45:42.495Z,90.67
2018-02-20T06:46:42.485Z,91.38
2018-02-20T06:47:42.468Z,90.72
2018-02-20T06:48:42.453Z,89.20
2018-02-20T06:49:42.437Z,87.55
2018-02-20T06:50:42.455Z,86.98
2018-02-20T06:51:42.403Z,87.55
2018-02-20T06:52:42.389Z,89.06
2018-02-20T06:53:42.372Z,88.12
2018-02-20T06:54:42.354Z,86.51
2018-02-20T06:55:42.357Z,87.08
2018-02-20T06:56:42.323Z,86.51
2018-02-20T06:57:42.314Z,87.17
2018-02-20T06:58:42.295Z,85.94
2018-02-20T06:59:42.278Z,84.42
2018-02-20T07:00:42.274Z,85.09
2018-02-20T07:01:42.248Z,84.90
2018-02-20T07:02:42.238Z,84.52
2018-02-20T07:03:42.216Z,84.42
2018-02-20T07:04:42.201Z,85.66
2018-02-20T07:05:42.187Z,86.70
2018-02-20T07:06:42.172Z,85.57
2018-02-20T07:07:42.154Z,85.09
2018-02-20T07:08:42.142Z,85.09
2018-02-20T07:09:42.125Z,85.00
2018-02-20T07:10:42.110Z,84.61
2018-02-20T07:11:42.093Z,84.42
2018-02-20T07:12:42.081Z,84.71
2018-02-20T07:13:42.070Z,83.95
2018-02-20T07:14:42.055Z,84.61
2018-02-20T07:15:42.031Z,84.71
2018-02-20T07:16:42.021Z,84.33
2018-02-20T07:17:42.006Z,85.66
2018-02-20T07:18:41.987Z,84.71
2018-02-20T07:19:41.970Z,84.23
2018-02-20T07:20:41.953Z,84.42
2018-02-20T07:21:41.937Z,84.52
2018-02-20T07:22:41.924Z,84.90
2018-02-20T07:23:41.907Z,84.23
2018-02-20T07:24:41.890Z,84.23
2018-02-20T07:25:41.875Z,84.81
2018-02-20T07:26:41.862Z,84.61
2018-02-20T07:27:41.842Z,84.71
2018-02-20T07:28:41.832Z,84.42
2018-02-20T07:29:41.813Z,84.71
2018-02-20T07:30:41.794Z,84.61
2018-02-20T07:31:41.781Z,83.86
2018-02-20T07:32:41.775Z,83.67
2018-02-20T07:33:41.747Z,84.42
2018-02-20T07:34:41.737Z,84.52
2018-02-20T07:35:41.721Z,84.52
2018-02-20T07:36:41.700Z,84.61
2018-02-20T07:37:41.684Z,83.95
2018-02-20T07:38:41.668Z,84.14
2018-02-20T07:39:41.650Z,84.14
2018-02-20T07:40:41.639Z,84.33
2018-02-20T07:41:41.625Z,84.23
2018-02-20T07:42:41.610Z,84.71
2018-02-20T07:43:41.586Z,83.67
2018-02-20T07:44:41.572Z,84.33
2018-02-20T07:45:41.555Z,84.23
2018-02-20T07:46:41.547Z,85.38
2018-02-20T07:47:41.527Z,85.75
2018-02-20T07:48:41.507Z,84.90
2018-02-20T07:49:41.493Z,83.86
2018-02-20T07:50:41.481Z,83.58
2018-02-20T07:51:41.459Z,83.48
2018-02-20T07:52:41.443Z,83.95
2018-02-20T07:53:41.429Z,83.86
2018-02-20T07:54:41.415Z,84.14
2018-02-20T07:55:41.393Z,86.60
2018-02-20T07:56:41.378Z,84.33
2018-02-20T07:57:41.366Z,83.76
2018-02-20T07:58:41.346Z,83.58
2018-02-20T07:59:41.337Z,84.33
2018-02-20T08:00:41.318Z,84.05
2018-02-20T08:01:41.298Z,83.67
2018-02-20T08:02:41.283Z,84.71
2018-02-20T08:03:41.267Z,84.23
2018-02-20T08:04:41.250Z,84.05
2018-02-20T08:05:41.233Z,83.58
2018-02-20T08:06:41.218Z,82.53
2018-02-20T08:07:41.211Z,82.06
2018-02-20T08:08:41.186Z,82.63
2018-02-20T08:09:41.172Z,82.53
2018-02-20T08:10:41.156Z,83.48
2018-02-20T08:11:41.143Z,85.94
2018-02-20T08:12:41.126Z,84.71
2018-02-20T08:13:41.112Z,83.95
2018-02-20T08:14:41.091Z,84.23
2018-02-20T08:15:41.074Z,84.14
2018-02-20T08:16:41.058Z,82.63
2018-02-20T08:17:41.048Z,81.87
2018-02-20T08:18:41.077Z,82.15
2018-02-20T08:19:41.021Z,81.30
2018-02-20T08:20:40.996Z,82.34
2018-02-20T08:21:40.983Z,83.10
2018-02-20T08:22:40.967Z,82.25
2018-02-20T08:23:40.948Z,81.68
2018-02-20T08:24:40.933Z,82.82
2018-02-20T08:25:40.923Z,82.82
2018-02-20T08:26:40.901Z,81.40
2018-02-20T08:27:40.885Z,81.68
2018-02-20T08:28:40.870Z,81.30
2018-02-20T08:29:40.873Z,80.83
2018-02-20T08:30:40.837Z,80.93
2018-02-20T08:31:40.822Z,80.74
2018-02-20T08:32:40.809Z,81.68
2018-02-20T08:33:40.793Z,81.49
2018-02-20T08:34:40.785Z,82.44
2018-02-20T08:35:40.765Z,82.06
2018-02-20T08:36:40.744Z,82.06
2018-02-20T08:37:40.732Z,81.96
2018-02-20T08:38:40.713Z,81.68
2018-02-20T08:39:40.695Z,82.63
2018-02-20T08:40:40.679Z,81.87
2018-02-20T08:41:40.664Z,81.59
2018-02-20T08:42:40.647Z,81.68
2018-02-20T08:43:40.632Z,81.21
2018-02-20T08:44:40.615Z,81.87
2018-02-20T08:45:40.599Z,82.06
2018-02-20T08:46:40.584Z,81.77
2018-02-20T08:47:40.567Z,82.06
2018-02-20T08:48:40.553Z,81.87
2018-02-20T08:49:40.538Z,81.87
2018-02-20T08:50:40.522Z,82.06
2018-02-20T08:51:40.504Z,82.34
2018-02-20T08:52:40.490Z,82.34
2018-02-20T08:53:40.478Z,82.06
2018-02-20T08:54:40.465Z,82.53
2018-02-20T08:55:40.439Z,82.53
2018-02-20T08:56:40.426Z,83.01
2018-02-20T08:57:40.415Z,82.53
2018-02-20T08:58:40.400Z,82.82
2018-02-20T08:59:40.376Z,83.01
2018-02-20T09:00:40.362Z,83.01
2018-02-20T09:01:40.352Z,82.15
2018-02-20T09:02:40.336Z,82.34
2018-02-20T09:03:40.319Z,82.44
2018-02-20T09:04:40.297Z,82.34
2018-02-20T09:05:40.281Z,82.25
2018-02-20T09:06:40.266Z,82.72
2018-02-20T09:07:40.255Z,82.06
2018-02-20T09:08:40.233Z,82.25
2018-02-20T09:09:40.217Z,81.87
2018-02-20T09:10:40.201Z,81.68
2018-02-20T09:11:40.185Z,81.30
2018-02-20T09:12:40.178Z,81.49
2018-02-20T09:13:40.155Z,81.49
2018-02-20T09:14:40.140Z,81.49
2018-02-20T09:15:40.122Z,80.74
2018-02-20T09:16:40.111Z,80.64
2018-02-20T09:17:40.089Z,80.45
2018-02-20T09:18:40.121Z,79.60
2018-02-20T09:19:40.056Z,79.69
2018-02-20T09:20:40.047Z,80.17
2018-02-20T09:21:40.026Z,80.26
2018-02-20T09:22:40.011Z,80.55
2018-02-20T09:23:39.996Z,81.68
2018-02-20T09:24:39.979Z,81.30
2018-02-20T09:25:39.959Z,82.06
2018-02-20T09:26:39.951Z,80.64
2018-02-20T09:27:39.934Z,80.64
2018-02-20T09:28:39.914Z,80.36
2018-02-20T09:29:39.901Z,80.36
2018-02-20T09:30:39.880Z,80.74
2018-02-20T09:31:39.865Z,80.83
2018-02-20T09:32:39.847Z,80.74
2018-02-20T09:33:39.833Z,80.55
2018-02-20T09:34:39.819Z,80.64
2018-02-20T09:35:39.806Z,82.25
2018-02-20T09:36:39.791Z,81.49
2018-02-20T09:37:39.769Z,80.93
2018-02-20T09:38:39.754Z,80.45
2018-02-20T09:39:39.741Z,79.79
2018-02-20T09:40:39.724Z,80.93
2018-02-20T09:41:39.713Z,80.26
2018-02-20T09:42:39.690Z,79.03
2018-02-20T09:43:39.675Z,78.94
2018-02-20T09:44:39.658Z,78.56
2018-02-20T09:45:39.642Z,79.13
2018-02-20T09:46:39.628Z,78.85
2018-02-20T09:47:39.610Z,79.50
2018-02-20T09:48:39.598Z,79.22
2018-02-20T09:49:39.579Z,79.22
2018-02-20T09:50:39.564Z,78.65
2018-02-20T09:51:39.547Z,78.37
2018-02-20T09:52:39.529Z,79.03
2018-02-20T09:53:39.514Z,77.89
2018-02-20T09:54:39.500Z,77.42
2018-02-20T09:55:39.481Z,77.99
2018-02-20T09:56:39.469Z,77.99
2018-02-20T09:57:39.455Z,77.70
2018-02-20T09:58:39.434Z,77.99
2018-02-20T09:59:39.419Z,78.85
2018-02-20T10:00:39.402Z,79.22
2018-02-20T10:01:39.385Z,79.69
2018-02-20T10:02:39.418Z,78.37
2018-02-20T10:03:39.353Z,77.51
2018-02-20T10:04:39.339Z,77.70
2018-02-20T10:05:39.322Z,77.99
2018-02-20T10:06:39.311Z,78.56
2018-02-20T10:07:39.291Z,78.37
2018-02-20T10:08:39.275Z,78.65
2018-02-20T10:09:39.260Z,79.03
2018-02-20T10:10:39.243Z,78.65
2018-02-20T10:11:39.227Z,78.65
2018-02-20T10:12:39.215Z,78.27
2018-02-20T10:13:39.195Z,77.89
2018-02-20T10:14:39.179Z,77.61
2018-02-20T10:15:39.169Z,77.80
2018-02-20T10:16:39.146Z,77.42
2018-02-20T10:17:39.134Z,77.80
2018-02-20T10:18:39.125Z,77.23
2018-02-20T10:19:39.106Z,77.14
2018-02-20T10:20:39.090Z,77.14
2018-02-20T10:21:39.074Z,77.51
2018-02-20T10:22:39.053Z,77.14
2018-02-20T10:23:39.041Z,77.89
2018-02-20T10:24:39.021Z,78.65
2018-02-20T10:25:39.010Z,77.33
2018-02-20T10:26:38.990Z,76.76
2018-02-20T10:27:38.974Z,76.95
2018-02-20T10:28:38.957Z,77.51
2018-02-20T10:29:38.942Z,76.76
2018-02-20T10:30:38.927Z,75.62
2018-02-20T10:31:38.910Z,76.19
2018-02-20T10:32:38.895Z,76.48
2018-02-20T10:33:38.878Z,76.10
2018-02-20T10:34:38.863Z,75.81
2018-02-20T10:35:38.849Z,75.24
2018-02-20T10:36:38.836Z,74.68
2018-02-20T10:37:38.817Z,75.81
2018-02-20T10:38:38.800Z,75.81
2018-02-20T10:39:38.783Z,74.96
2018-02-20T10:40:38.771Z,73.83
2018-02-20T10:41:38.755Z,74.96
2018-02-20T10:42:38.739Z,74.40
2018-02-20T10:43:38.723Z,74.49
2018-02-20T10:44:38.706Z,74.68
2018-02-20T10:45:38.691Z,73.64
2018-02-20T10:46:38.675Z,73.45
2018-02-20T10:47:38.663Z,73.16
2018-02-20T10:48:38.644Z,72.97
2018-02-20T10:49:38.628Z,72.88
2018-02-20T10:50:38.614Z,73.83
2018-02-20T10:51:38.602Z,74.40
2018-02-20T10:52:38.585Z,73.64
2018-02-20T10:53:38.570Z,73.45
2018-02-20T10:54:38.550Z,73.64
2018-02-20T10:55:38.534Z,73.83
2018-02-20T10:56:38.517Z,73.73
2018-02-20T10:57:38.503Z,72.78
2018-02-20T10:58:38.487Z,72.78
2018-02-20T10:59:38.470Z,72.03
2018-02-20T11:00:38.458Z,72.41
2018-02-20T11:01:38.450Z,71.65
2018-02-20T11:02:38.431Z,71.46
2018-02-20T11:03:38.410Z,72.41
2018-02-20T11:04:38.394Z,71.55
2018-02-20T11:05:38.384Z,71.65
2018-02-20T11:06:38.368Z,71.65
2018-02-20T11:07:38.378Z,71.65
2018-02-20T11:08:38.336Z,71.65
2018-02-20T11:09:38.320Z,71.74
2018-02-20T11:10:38.299Z,71.27
2018-02-20T11:11:38.283Z,71.27
2018-02-20T11:12:38.268Z,71.55
2018-02-20T11:13:38.253Z,72.03
2018-02-20T11:14:38.241Z,71.36
2018-02-20T11:15:38.226Z,71.36
2018-02-20T11:16:38.205Z,71.27
2018-02-20T11:17:38.190Z,71.27
2018-02-20T11:18:38.174Z,71.65
2018-02-20T11:19:38.158Z,72.25
2018-02-20T11:20:38.142Z,73.20
2018-02-20T11:21:38.129Z,71.88
2018-02-20T11:22:38.111Z,71.59
2018-02-20T11:23:38.101Z,71.69
2018-02-20T11:24:38.078Z,71.21
2018-02-20T11:25:38.121Z,73.20
2018-02-20T11:26:38.048Z,72.25
2018-02-20T11:27:38.033Z,70.45
2018-02-20T11:28:38.025Z,69.60
2018-02-20T11:29:38.011Z,69.60
2018-02-20T11:30:37.987Z,69.70
2018-02-20T11:31:37.976Z,69.60
2018-02-20T11:32:37.954Z,69.03
2018-02-20T11:33:37.943Z,69.32
2018-02-20T11:34:37.924Z,69.51
2018-02-20T11:35:37.911Z,69.13
2018-02-20T11:36:37.893Z,69.51
2018-02-20T11:37:37.878Z,69.13
2018-02-20T11:38:37.900Z,68.84
2018-02-20T11:39:37.851Z,68.37
2018-02-20T11:40:37.833Z,68.56
2018-02-20T11:41:37.817Z,67.90
2018-02-20T11:42:37.806Z,67.90
2018-02-20T11:43:37.786Z,68.18
2018-02-20T11:44:37.776Z,69.22
2018-02-20T11:45:37.756Z,68.94
2018-02-20T11:46:37.740Z,68.94
2018-02-20T11:47:37.726Z,68.65
2018-02-20T11:48:37.715Z,68.65
2018-02-20T11:49:37.694Z,68.08
2018-02-20T11:50:37.680Z,67.71
2018-02-20T11:51:37.664Z,67.05
2018-02-20T11:52:37.648Z,68.84
2018-02-20T11:53:37.635Z,67.71
2018-02-20T11:54:37.624Z,66.99
2018-02-20T11:55:37.604Z,67.08
2018-02-20T11:56:37.594Z,66.80
2018-02-20T11:57:37.582Z,66.32
2018-02-20T11:58:37.561Z,66.89
2018-02-20T11:59:37.551Z,66.41
2018-02-20T12:00:37.531Z,66.13
2018-02-20T12:01:37.514Z,66.89
2018-02-20T12:02:37.505Z,70.87
2018-02-20T12:03:37.484Z,69.73
2018-02-20T12:04:37.473Z,67.36
2018-02-20T12:05:37.457Z,66.89
2018-02-20T12:06:37.445Z,66.89
2018-02-20T12:07:37.431Z,66.22
2018-02-20T12:08:37.413Z,66.70
2018-02-20T12:09:37.398Z,65.84
2018-02-20T12:10:37.383Z,65.19
2018-02-20T12:11:37.370Z,67.36
2018-02-20T12:12:37.359Z,66.22
2018-02-20T12:13:37.340Z,65.75
2018-02-20T12:14:37.325Z,66.32
2018-02-20T12:15:37.309Z,68.12
2018-02-20T12:16:37.302Z,68.59
2018-02-20T12:17:37.280Z,67.18
2018-02-20T12:18:37.269Z,66.89
2018-02-20T12:19:37.253Z,67.18
2018-02-20T12:20:37.236Z,70.97
2018-02-20T12:21:37.222Z,70.97
2018-02-20T12:22:37.207Z,67.46
2018-02-20T12:23:37.194Z,66.32
2018-02-20T12:24:37.184Z,65.19
2018-02-20T12:25:37.166Z,66.22
2018-02-20T12:26:37.154Z,67.18
2018-02-20T12:27:37.142Z,67.93
2018-02-20T12:28:37.123Z,65.75
2018-02-20T12:29:37.126Z,66.32
2018-02-20T12:30:37.097Z,67.83
2018-02-20T12:31:37.080Z,67.83
2018-02-20T12:32:37.067Z,70.01
2018-02-20T12:33:37.064Z,68.12
2018-02-20T12:34:37.038Z,65.47
2018-02-20T12:35:37.021Z,65.28
2018-02-20T12:36:37.019Z,65.75
2018-02-20T12:37:36.992Z,66.22
2018-02-20T12:38:36.988Z,67.46
2018-02-20T12:39:36.964Z,67.83
2018-02-20T12:40:36.955Z,66.99
2018-02-20T12:41:36.942Z,66.89
2018-02-20T12:42:36.932Z,66.99
2018-02-20T12:43:36.906Z,66.51
2018-02-20T12:44:36.901Z,65.47
2018-02-20T12:45:36.881Z,65.47
2018-02-20T12:46:36.871Z,66.89
2018-02-20T12:47:36.849Z,66.70
2018-02-20T12:48:36.835Z,67.18
2018-02-20T12:49:36.828Z,67.46
2018-02-20T12:50:36.808Z,65.47
2018-02-20T12:51:36.797Z,65.84
2018-02-20T12:52:36.779Z,65.37